Terminal Aerodrome Forecast
Issued by NWS Jackson, MS

Home | Current Version | Previous Version | Text Only | Print | Product List | Glossary On
Versions: 1 2 3 4 5 6 7 8 9 10 11 12
000
FTUS44 KJAN 260520
TAFHBG
TAF
KHBG 260520Z 2606/2706 00000KT 4SM BR SKC
     FM260900 00000KT 2SM BR SCT002
     FM261400 03004KT P6SM SCT035 SCT050
     FM261900 32010KT P6SM VCTS BKN050CB
     FM270000 34007KT P6SM SCT050 BKN100=

USA.gov is the U.S. government's official web portal to all federal, state and local government web resources and services.